Time;durP1;ratioP1;P1;durP2;ratioP2;P2;SDS_P1;SDS_P2;PMS_P1;PMS_P2;Temp;Humidity;BMP_temperature;BMP_pressure;BME280_temperature;BME280_humidity;BME280_pressure;Samples;Min_cycle;Max_cycle;Signal;HPM_P1;HPM_P2
2022/03/29 00:00:46;;;;;;;5.03;4.33;;;;;;;16.96;37.71;98849.66;1768504;81;21025;-64
2022/03/29 00:03:13;;;;;;;5.75;4.95;;;;;;;16.96;37.71;98838.92;1768669;81;21636;-64
2022/03/29 00:05:41;;;;;;;5.05;4.55;;;;;;;16.97;37.73;98839.73;1764914;81;21088;-64
2022/03/29 00:08:07;;;;;;;4.80;4.12;;;;;;;16.96;37.74;98834.89;1764902;81;21254;-64
2022/03/29 00:10:34;;;;;;;4.65;4.00;;;;;;;16.96;37.74;98835.40;1764807;81;21006;-64
2022/03/29 00:13:02;;;;;;;4.95;4.17;;;;;;;16.95;37.75;98829.75;1764846;81;21516;-63
2022/03/29 00:15:28;;;;;;;5.17;4.55;;;;;;;16.94;37.75;98823.58;1765787;80;21010;-64
2022/03/29 00:17:57;;;;;;;5.10;4.60;;;;;;;16.94;37.74;98831.62;1765334;81;21038;-63
2022/03/29 00:20:23;;;;;;;5.58;4.40;;;;;;;16.94;37.74;98820.06;1765051;81;22003;-63
2022/03/29 00:22:50;;;;;;;5.35;4.65;;;;;;;16.93;37.75;98815.23;1783565;79;21497;-64
2022/03/29 00:25:18;;;;;;;4.65;4.08;;;;;;;16.92;37.75;98809.59;1800799;79;21020;-64
2022/03/29 00:27:45;;;;;;;5.75;4.47;;;;;;;16.91;37.75;98807.94;1802409;79;21001;-64
2022/03/29 00:30:13;;;;;;;5.25;4.75;;;;;;;16.92;37.76;98814.11;1802492;79;21619;-64
2022/03/29 00:32:40;;;;;;;4.90;4.40;;;;;;;16.90;37.78;98809.81;1792141;79;22163;-64
2022/03/29 00:35:12;;;;;;;5.12;4.58;;;;;;;16.89;37.77;98802.80;1764967;81;21077;-64
2022/03/29 00:37:38;;;;;;;5.83;4.65;;;;;;;16.89;37.77;98797.97;1764999;81;21521;-65
2022/03/29 00:40:08;;;;;;;5.15;4.40;;;;;;;16.87;37.78;98804.89;1765026;81;21032;-64
2022/03/29 00:42:35;;;;;;;5.62;4.78;;;;;;;16.88;37.79;98807.89;1765070;81;21017;-64
2022/03/29 00:45:01;;;;;;;4.92;4.42;;;;;;;16.88;37.80;98803.02;1765041;81;21253;-63
2022/03/29 00:47:28;;;;;;;5.60;4.10;;;;;;;16.87;37.80;98799.53;1764970;81;21017;-64
2022/03/29 00:49:54;;;;;;;5.42;4.28;;;;;;;16.86;37.81;98793.89;1776160;79;21010;-64
2022/03/29 00:52:21;;;;;;;5.45;4.30;;;;;;;16.86;37.81;98793.89;1794743;80;21052;-64
2022/03/29 00:54:48;;;;;;;5.67;4.35;;;;;;;16.86;37.80;98791.71;1794812;80;21026;-64
2022/03/29 00:57:15;;;;;;;6.03;4.90;;;;;;;16.85;37.82;98781.52;1794729;80;22215;-63
2022/03/29 00:59:43;;;;;;;6.33;5.03;;;;;;;16.83;37.82;98778.25;1795079;80;21014;-64
2022/03/29 01:02:10;;;;;;;5.67;4.40;;;;;;;16.83;37.82;98779.59;1794946;79;21540;-64
2022/03/29 01:04:38;;;;;;;4.62;4.17;;;;;;;16.83;37.83;98790.85;1796508;79;21024;-63
2022/03/29 01:07:05;;;;;;;5.72;4.78;;;;;;;16.81;37.83;98780.31;1807598;78;21021;-64
2022/03/29 01:09:33;;;;;;;5.47;4.53;;;;;;;16.81;37.83;98780.31;1789492;80;22212;-65
2022/03/29 01:12:00;;;;;;;5.12;4.47;;;;;;;16.80;37.84;98786.72;1756683;81;21041;-64
2022/03/29 01:14:27;;;;;;;5.35;4.33;;;;;;;16.79;37.84;98788.31;1792775;80;21482;-65
2022/03/29 01:19:41;;;;;;;5.25;4.47;;;;;;;16.78;37.86;98774.59;1758434;81;21043;-64
2022/03/29 01:22:09;;;;;;;7.60;4.80;;;;;;;16.77;37.85;98775.66;1759310;80;21250;-65
2022/03/29 01:24:36;;;;;;;5.22;4.10;;;;;;;16.76;37.86;98769.45;1811151;78;21065;-64
2022/03/29 01:27:05;;;;;;;6.53;4.67;;;;;;;16.76;37.87;98777.50;1821781;78;21069;-64
2022/03/29 01:29:35;;;;;;;5.58;4.78;;;;;;;16.75;37.87;98765.69;1814984;78;21053;-64
2022/03/29 01:32:04;;;;;;;7.30;5.22;;;;;;;16.74;37.88;98755.47;1821841;78;20982;-65
2022/03/29 01:34:32;;;;;;;5.03;4.50;;;;;;;16.74;37.88;98764.85;1821824;78;21218;-64
2022/03/29 01:36:58;;;;;;;5.33;4.67;;;;;;;16.74;37.90;98754.66;1821731;78;20984;-63
2022/03/29 01:39:25;;;;;;;6.00;4.72;;;;;;;16.73;37.87;98762.39;1821934;78;21529;-64
2022/03/29 01:41:52;;;;;;;5.05;4.55;;;;;;;16.71;37.88;98750.05;1819354;78;20990;-63
2022/03/29 01:44:19;;;;;;;5.97;4.25;;;;;;;16.70;37.88;98747.06;1787718;80;21068;-64
2022/03/29 01:46:46;;;;;;;5.72;4.83;;;;;;;16.70;37.88;98755.11;1820005;78;21992;-64
2022/03/29 01:49:13;;;;;;;5.83;4.75;;;;;;;16.70;37.92;98741.70;1787659;80;21006;-64
2022/03/29 01:51:41;;;;;;;5.60;4.55;;;;;;;16.70;37.89;98744.38;1820067;78;20967;-64
2022/03/29 01:54:07;;;;;;;5.03;4.25;;;;;;;16.70;37.89;98750.28;1787814;80;21521;-64
2022/03/29 01:56:36;;;;;;;5.50;4.25;;;;;;;16.69;37.89;98747.32;1820132;78;21053;-63
2022/03/29 01:59:05;;;;;;;5.55;4.58;;;;;;;16.68;37.89;98750.50;1787703;80;22051;-63
2022/03/29 02:01:46;;;;;;;5.40;4.70;;;;;;;16.68;37.91;98745.67;1819993;78;21069;-64
2022/03/29 02:04:14;;;;;;;5.55;4.50;;;;;;;16.67;37.89;98746.73;1791298;80;21033;-63
2022/03/29 02:06:41;;;;;;;5.97;4.70;;;;;;;16.67;37.91;98744.87;1827721;78;21032;-63
2022/03/29 02:09:08;;;;;;;5.20;4.70;;;;;;;16.66;37.90;98742.41;1793788;80;21552;-64
2022/03/29 02:11:36;;;;;;;6.05;5.10;;;;;;;16.65;37.92;98739.42;1827812;78;21147;-64
2022/03/29 02:14:04;;;;;;;6.15;4.90;;;;;;;16.65;37.91;98745.63;1792753;80;21006;-63
2022/03/29 02:16:30;;;;;;;5.50;5.00;;;;;;;16.63;37.91;98746.38;1795313;80;21040;-63
2022/03/29 02:18:57;;;;;;;5.53;4.65;;;;;;;16.64;37.90;98729.76;1762213;81;21189;-63
2022/03/29 02:21:24;;;;;;;5.35;4.50;;;;;;;16.63;37.91;98728.95;1795381;80;21489;-66
2022/03/29 02:23:51;;;;;;;6.08;5.12;;;;;;;16.62;37.93;98734.54;1762170;81;21150;-64
2022/03/29 02:26:17;;;;;;;5.17;4.62;;;;;;;16.62;37.93;98730.52;1795187;80;21080;-64
2022/03/29 02:28:44;;;;;;;5.70;4.70;;;;;;;16.61;37.94;98723.01;1762318;81;21576;-64
2022/03/29 02:31:10;;;;;;;5.65;4.58;;;;;;;16.60;37.92;98722.70;1796306;78;21006;-63
2022/03/29 02:33:38;;;;;;;5.17;4.67;;;;;;;16.61;37.92;98731.55;1764847;80;21064;-63
2022/03/29 02:36:05;;;;;;;6.08;4.60;;;;;;;16.60;37.94;98728.59;1791377;79;21132;-63
2022/03/29 02:38:32;;;;;;;5.50;5.00;;;;;;;16.59;37.93;98722.92;1805012;79;20973;-67
2022/03/29 02:41:00;;;;;;;5.50;4.75;;;;;;;16.57;37.95;98729.86;1827925;78;21505;-64
2022/03/29 02:43:27;;;;;;;5.83;5.03;;;;;;;16.57;37.94;98720.47;1827734;78;21053;-63
2022/03/29 02:45:53;;;;;;;5.62;4.72;;;;;;;16.57;37.95;98727.17;1793506;80;21076;-63
2022/03/29 02:48:20;;;;;;;5.42;4.60;;;;;;;16.57;37.96;98724.49;1823528;78;21720;-63
2022/03/29 02:50:47;;;;;;;7.92;5.08;;;;;;;16.55;37.97;98715.87;1762084;81;21097;-64
2022/03/29 02:53:15;;;;;;;5.65;4.60;;;;;;;16.56;37.94;98733.60;1795153;80;21501;-64
2022/03/29 02:55:42;;;;;;;6.17;4.95;;;;;;;16.55;37.97;98723.10;1762148;81;21093;-64
2022/03/29 02:58:11;;;;;;;5.45;4.90;;;;;;;16.54;37.97;98722.30;1795278;80;21517;-63
2022/03/29 03:00:38;;;;;;;5.47;4.62;;;;;;;16.53;37.98;98727.34;1762113;81;21217;-63
2022/03/29 03:03:04;;;;;;;6.00;5.15;;;;;;;16.53;37.99;98719.84;1795267;78;21500;-63
2022/03/29 03:05:32;;;;;;;6.28;5.28;;;;;;;16.52;38.01;98715.01;1794392;79;21052;-64
2022/03/29 03:07:58;;;;;;;5.78;5.17;;;;;;;16.51;38.01;98718.72;1817062;79;20998;-63
2022/03/29 03:10:25;;;;;;;5.80;5.20;;;;;;;16.50;38.00;98710.41;1817263;79;21006;-64
2022/03/29 03:12:52;;;;;;;5.92;5.33;;;;;;;16.50;38.00;98706.38;1817111;79;21253;-63
2022/03/29 03:15:21;;;;;;;6.92;5.12;;;;;;;16.50;38.00;98711.22;1816973;79;21337;-64
2022/03/29 03:19:16;;;;;;;5.67;5.10;;;;;;;16.53;38.02;98697.05;1870293;76;28527;-63
2022/03/29 03:21:42;;;;;;;6.03;5.30;;;;;;;16.48;38.00;98696.42;1826754;78;21443;-64
2022/03/29 03:24:09;;;;;;;5.47;4.80;;;;;;;16.49;38.01;98715.46;1798043;78;21067;-64
2022/03/29 03:26:35;;;;;;;6.08;5.28;;;;;;;16.48;38.03;98713.84;1793925;80;20992;-64
2022/03/29 03:29:02;;;;;;;5.97;5.25;;;;;;;16.46;38.04;98706.02;1793994;79;20957;-64
2022/03/29 03:31:30;;;;;;;5.97;5.37;;;;;;;16.47;38.04;98709.52;1793936;79;21076;-64
2022/03/29 03:33:57;;;;;;;6.08;5.40;;;;;;;16.46;38.04;98707.90;1794011;80;21045;-62
2022/03/29 03:36:24;;;;;;;6.72;5.10;;;;;;;16.46;38.04;98699.86;1794032;80;21129;-64
2022/03/29 03:38:50;;;;;;;5.33;4.83;;;;;;;16.44;38.05;98702.77;1793989;79;20985;-64
2022/03/29 03:41:18;;;;;;;7.33;5.72;;;;;;;16.44;38.06;98697.94;1819192;78;21001;-64
2022/03/29 03:43:44;;;;;;;6.25;5.33;;;;;;;16.43;38.05;98694.41;1814842;78;20985;-64
2022/03/29 03:46:11;;;;;;;6.10;5.35;;;;;;;16.41;38.07;98699.72;1814683;79;21021;-63
2022/03/29 03:48:38;;;;;;;6.85;5.42;;;;;;;16.42;38.06;98698.69;1814632;79;22193;-64
2022/03/29 03:51:06;;;;;;;7.15;6.05;;;;;;;16.40;38.08;98700.26;1814526;79;21047;-64
2022/03/29 03:53:33;;;;;;;6.37;5.67;;;;;;;16.40;38.09;98700.76;1783432;79;21560;-65
2022/03/29 03:56:01;;;;;;;7.30;5.42;;;;;;;16.39;38.09;98707.19;1814739;78;21000;-62
2022/03/29 03:58:28;;;;;;;7.12;5.90;;;;;;;16.39;38.10;98693.78;1794147;80;21292;-64
2022/03/29 04:00:56;;;;;;;5.83;5.22;;;;;;;16.38;38.11;98705.53;1794034;80;21139;-64
2022/03/29 04:03:22;;;;;;;5.47;4.95;;;;;;;16.38;38.10;98701.52;1814695;78;21084;-64
2022/03/29 04:05:49;;;;;;;7.50;6.20;;;;;;;16.37;38.11;98689.17;1826688;78;21494;-64
2022/03/29 04:08:15;;;;;;;6.65;5.95;;;;;;;16.37;38.11;98702.58;1826519;78;21506;-64
2022/03/29 04:10:43;;;;;;;7.25;6.55;;;;;;;16.37;38.10;98702.05;1826607;78;21032;-63
2022/03/29 04:13:10;;;;;;;6.78;6.08;;;;;;;16.37;38.11;98698.56;1825174;78;21282;-62
2022/03/29 04:15:37;;;;;;;6.95;5.80;;;;;;;16.37;38.12;98703.92;1826492;78;21056;-64
2022/03/29 04:18:04;;;;;;;5.97;5.37;;;;;;;16.37;38.10;98699.90;1826382;77;21044;-63
2022/03/29 04:20:32;;;;;;;6.72;5.92;;;;;;;16.36;38.11;98702.27;1826922;78;20989;-64
2022/03/29 04:22:59;;;;;;;6.28;5.65;;;;;;;16.35;38.11;98696.10;1826766;78;21017;-64
2022/03/29 04:25:26;;;;;;;7.05;6.35;;;;;;;16.35;38.12;98698.78;1826682;78;22214;-64
2022/03/29 04:27:54;;;;;;;7.10;6.40;;;;;;;16.36;38.13;98699.59;1826636;78;21013;-63
2022/03/29 04:30:20;;;;;;;7.70;6.53;;;;;;;16.35;38.13;98707.36;1825086;78;21544;-64
2022/03/29 04:32:47;;;;;;;7.20;5.90;;;;;;;16.35;38.13;98697.97;1826140;78;21517;-63
2022/03/29 04:35:13;;;;;;;7.10;6.00;;;;;;;16.35;38.13;98696.63;1826089;78;21017;-64
2022/03/29 04:37:41;;;;;;;6.95;6.25;;;;;;;16.34;38.16;98706.55;1826079;78;22142;-63
2022/03/29 04:40:09;;;;;;;6.97;6.28;;;;;;;16.35;38.17;98697.97;1826164;78;21540;-65
2022/03/29 04:42:44;;;;;;;6.50;5.80;;;;;;;16.35;38.14;98694.77;1826232;78;20986;-63
2022/03/29 04:45:12;;;;;;;6.90;6.20;;;;;;;16.35;38.18;98704.67;1826209;78;20986;-63
2022/03/29 04:47:41;;;;;;;7.15;6.45;;;;;;;16.35;38.18;98701.46;1822283;78;21083;-64
2022/03/29 04:50:09;;;;;;;6.72;6.03;;;;;;;16.36;38.17;98708.97;1826214;78;21221;-63
2022/03/29 04:52:38;;;;;;;6.62;5.92;;;;;;;16.36;38.18;98704.95;1826056;78;20992;-64
2022/03/29 04:55:07;;;;;;;6.67;6.00;;;;;;;16.36;38.19;98696.91;1826194;78;21032;-63
2022/03/29 04:57:34;;;;;;;6.30;5.65;;;;;;;16.37;38.22;98705.26;1825157;78;21067;-63
2022/03/29 05:00:01;;;;;;;7.22;6.53;;;;;;;16.37;38.22;98699.36;1826103;78;21195;-65
2022/03/29 05:02:28;;;;;;;8.33;6.60;;;;;;;16.37;38.23;98698.03;1817344;78;21183;-63
2022/03/29 05:04:55;;;;;;;6.70;5.78;;;;;;;16.39;38.24;98705.84;1806090;78;21077;-64
2022/03/29 05:07:23;;;;;;;7.17;6.30;;;;;;;16.39;38.23;98713.88;1826117;78;21049;-63
2022/03/29 05:09:50;;;;;;;6.95;5.92;;;;;;;16.40;38.25;98699.42;1826082;78;21049;-64
2022/03/29 05:12:18;;;;;;;6.85;5.95;;;;;;;16.40;38.25;98707.45;1826101;78;21048;-63
2022/03/29 05:14:45;;;;;;;6.70;6.00;;;;;;;16.41;38.26;98715.27;1826197;78;21177;-64
2022/03/29 05:17:12;;;;;;;7.25;6.22;;;;;;;16.41;38.27;98719.83;1825874;78;21090;-63
2022/03/29 05:19:38;;;;;;;6.83;6.12;;;;;;;16.41;38.28;98709.11;1825989;78;20997;-64
2022/03/29 05:22:05;;;;;;;7.45;6.40;;;;;;;16.41;38.29;98704.55;1825118;78;21041;-63
2022/03/29 05:24:31;;;;;;;6.95;6.25;;;;;;;16.41;38.29;98700.53;1826055;78;21073;-64
2022/03/29 05:26:58;;;;;;;6.47;5.87;;;;;;;16.42;38.29;98712.09;1826122;78;21837;-64
2022/03/29 05:29:27;;;;;;;6.65;5.87;;;;;;;16.42;38.29;98716.11;1825975;78;20993;-63
2022/03/29 05:31:53;;;;;;;6.80;6.20;;;;;;;16.42;38.30;98720.13;1826223;78;21586;-64
2022/03/29 05:34:20;;;;;;;7.62;6.58;;;;;;;16.43;38.30;98711.03;1826113;78;21001;-64
2022/03/29 05:36:47;;;;;;;6.75;6.15;;;;;;;16.43;38.32;98707.01;1826117;78;21061;-63
2022/03/29 05:39:14;;;;;;;7.35;6.20;;;;;;;16.44;38.32;98710.00;1824883;78;21965;-63
2022/03/29 05:41:41;;;;;;;7.20;6.35;;;;;;;16.43;38.34;98706.48;1825935;78;21003;-63
2022/03/29 05:44:08;;;;;;;7.03;6.33;;;;;;;16.44;38.33;98712.14;1826062;78;21557;-63
2022/03/29 05:49:20;;;;;;;7.10;5.83;;;;;;;16.46;38.35;98709.23;1826174;78;20966;-64
2022/03/29 05:51:47;;;;;;;7.62;6.92;;;;;;;16.47;38.38;98704.16;1825962;78;21121;-64
2022/03/29 05:54:13;;;;;;;7.10;6.42;;;;;;;16.47;38.39;98710.33;1825953;78;20993;-63
2022/03/29 05:56:39;;;;;;;6.70;5.87;;;;;;;16.50;38.38;98707.72;1804167;78;21037;-64
2022/03/29 05:59:07;;;;;;;5.90;5.30;;;;;;;16.50;38.40;98709.06;1793948;80;21021;-64
2022/03/29 06:01:35;;;;;;;7.00;6.30;;;;;;;16.51;38.41;98720.91;1793622;80;20979;-64
2022/03/29 06:04:06;;;;;;;7.42;6.72;;;;;;;16.52;38.41;98717.69;1793750;80;21227;-63
2022/03/29 06:06:30;;;;;;;7.42;6.45;;;;;;;16.53;38.43;98708.58;1793252;79;21336;-64
2022/03/29 06:08:57;;;;;;;7.37;6.67;;;;;;;16.56;38.43;98707.33;1793602;80;20985;-64
2022/03/29 06:11:24;;;;;;;7.33;6.50;;;;;;;16.56;38.46;98714.84;1793481;80;21072;-64
2022/03/29 06:13:50;;;;;;;6.72;5.95;;;;;;;16.56;38.46;98712.69;1795074;78;20994;-63
2022/03/29 06:16:17;;;;;;;7.08;6.30;;;;;;;16.58;38.48;98721.31;1793550;80;21219;-64
2022/03/29 06:18:45;;;;;;;6.80;6.08;;;;;;;16.59;38.48;98711.70;1793335;79;21017;-63
2022/03/29 06:21:12;;;;;;;7.28;5.92;;;;;;;16.61;38.47;98712.78;1793584;80;21025;-64
2022/03/29 06:23:39;;;;;;;6.92;6.22;;;;;;;16.62;38.46;98723.28;1793510;80;21514;-63
2022/03/29 06:26:06;;;;;;;7.15;6.30;;;;;;;16.63;38.47;98711.52;1793607;80;21007;-64
2022/03/29 06:28:33;;;;;;;7.03;6.33;;;;;;;16.64;38.49;98717.69;1793587;80;21078;-63
2022/03/29 06:30:59;;;;;;;7.85;7.12;;;;;;;16.65;38.49;98713.45;1794640;78;21061;-65
2022/03/29 06:33:26;;;;;;;6.47;5.65;;;;;;;16.66;38.49;98713.72;1793675;80;21025;-64
2022/03/29 06:35:52;;;;;;;6.53;5.83;;;;;;;16.68;38.50;98710.81;1793739;80;20994;-63
2022/03/29 06:38:21;;;;;;;7.40;5.92;;;;;;;16.69;38.49;98706.56;1793534;80;21021;-65
2022/03/29 06:40:48;;;;;;;7.08;6.25;;;;;;;16.70;38.52;98694.77;1793686;79;21139;-63
2022/03/29 06:43:15;;;;;;;6.87;6.17;;;;;;;16.73;38.52;98709.60;1822863;78;21053;-64
2022/03/29 06:45:43;;;;;;;7.40;6.58;;;;;;;16.75;38.53;98690.60;1826074;78;20990;-64
2022/03/29 06:48:10;;;;;;;7.20;6.00;;;;;;;16.77;38.52;98702.72;1825024;78;21056;-64
2022/03/29 06:50:36;;;;;;;8.68;6.85;;;;;;;16.79;38.58;98689.08;1826166;78;21003;-64
2022/03/29 06:53:04;;;;;;;7.87;6.67;;;;;;;16.81;38.54;98710.58;1826096;78;21206;-63
2022/03/29 06:55:30;;;;;;;7.15;6.37;;;;;;;16.83;38.55;98695.63;1826117;78;21482;-64
2022/03/29 06:57:57;;;;;;;6.92;6.22;;;;;;;16.86;38.57;98693.80;1826031;78;21508;-63
2022/03/29 07:00:25;;;;;;;7.83;7.03;;;;;;;16.89;38.58;98689.33;1825929;78;21558;-64
2022/03/29 07:02:52;;;;;;;7.25;6.42;;;;;;;16.90;38.58;98689.09;1826065;78;20979;-62
2022/03/29 07:05:19;;;;;;;6.60;6.00;;;;;;;16.93;38.60;98689.14;1794786;78;22220;-64
2022/03/29 07:07:45;;;;;;;7.03;5.83;;;;;;;16.95;38.61;98684.36;1793502;80;21066;-64
2022/03/29 07:13:01;;;;;;;7.30;6.60;;;;;;;17.00;38.63;98687.16;1793635;80;21021;-63
2022/03/29 07:15:30;;;;;;;7.28;6.50;;;;;;;17.03;38.65;98689.89;1793508;79;21001;-64
2022/03/29 07:17:56;;;;;;;7.05;6.35;;;;;;;17.05;38.64;98687.78;1793605;79;22476;-63
2022/03/29 07:20:24;;;;;;;6.62;6.03;;;;;;;17.07;38.67;98697.25;1784016;79;21037;-63
2022/03/29 07:22:51;;;;;;;7.08;6.25;;;;;;;17.08;38.66;98688.13;1782528;80;21006;-65
2022/03/29 07:25:20;;;;;;;6.47;5.87;;;;;;;17.12;38.62;98686.33;1782410;80;20998;-63
2022/03/29 07:27:49;;;;;;;7.20;6.50;;;;;;;17.15;38.64;98677.79;1782573;79;21034;-64
2022/03/29 07:30:16;;;;;;;6.90;6.20;;;;;;;17.17;38.64;98671.66;1782508;80;21880;-63
2022/03/29 07:32:47;;;;;;;7.15;6.45;;;;;;;17.20;38.63;98677.91;1782363;80;20986;-64
2022/03/29 07:35:15;;;;;;;7.37;6.37;;;;;;;17.22;38.63;98666.41;1782179;79;21050;-64
2022/03/29 07:37:42;;;;;;;7.50;6.78;;;;;;;17.25;38.64;98665.94;1783401;79;21002;-63
2022/03/29 07:40:11;;;;;;;6.92;6.25;;;;;;;17.27;38.60;98669.20;1782432;80;21033;-62
2022/03/29 07:42:38;;;;;;;7.35;6.65;;;;;;;17.29;38.62;98669.24;1803279;79;21182;-63
2022/03/29 07:45:06;;;;;;;8.10;6.47;;;;;;;17.32;38.63;98666.59;1814528;79;20971;-63
2022/03/29 07:47:36;;;;;;;6.80;6.10;;;;;;;17.35;38.67;98656.73;1814525;78;20998;-64
2022/03/29 07:50:07;;;;;;;7.10;6.40;;;;;;;17.38;38.67;98654.09;1814478;79;21069;-65
2022/03/29 07:52:35;;;;;;;7.30;6.50;;;;;;;17.40;38.67;98653.33;1814528;78;21076;-64
2022/03/29 07:55:04;;;;;;;7.62;6.22;;;;;;;17.42;38.69;98653.39;1813623;79;21796;-63
2022/03/29 07:57:31;;;;;;;7.65;6.90;;;;;;;17.44;38.68;98647.26;1814370;78;21003;-63
2022/03/29 07:59:58;;;;;;;7.15;6.45;;;;;;;17.48;38.69;98644.88;1814397;79;21072;-63
2022/03/29 08:02:25;;;;;;;7.87;6.47;;;;;;;17.50;38.65;98646.83;1811952;79;21069;-64
2022/03/29 08:04:51;;;;;;;7.50;6.40;;;;;;;17.54;38.67;98643.11;1810166;79;21057;-64
2022/03/29 08:07:18;;;;;;;6.90;6.20;;;;;;;17.56;38.65;98646.37;1814540;79;21229;-64
2022/03/29 08:09:45;;;;;;;7.40;6.45;;;;;;;17.59;38.71;98635.16;1814806;78;21031;-64
2022/03/29 08:12:11;;;;;;;8.05;6.75;;;;;;;17.62;38.67;98639.52;1798624;79;21486;-64
2022/03/29 08:14:39;;;;;;;8.98;7.08;;;;;;;17.64;38.67;98641.98;1782554;79;21017;-64
2022/03/29 08:17:06;;;;;;;7.58;6.83;;;;;;;17.67;38.65;98644.16;1782649;79;21082;-64
2022/03/29 08:19:34;;;;;;;8.60;7.33;;;;;;;17.68;38.63;98633.19;1787429;79;20994;-64
2022/03/29 08:22:00;;;;;;;8.98;7.45;;;;;;;17.71;38.60;98632.41;1793617;79;21036;-63
2022/03/29 08:24:27;;;;;;;8.95;8.05;;;;;;;17.75;38.60;98620.13;1793573;79;21080;-64
2022/03/29 08:26:54;;;;;;;8.05;7.25;;;;;;;17.76;38.59;98623.92;1793714;80;20998;-64
2022/03/29 08:29:22;;;;;;;7.72;6.90;;;;;;;17.79;38.56;98618.07;1794638;78;21020;-63
2022/03/29 08:31:49;;;;;;;7.47;6.75;;;;;;;17.82;38.56;98631.00;1793754;79;21241;-62
2022/03/29 08:34:17;;;;;;;8.30;7.35;;;;;;;17.84;38.52;98612.80;1793571;80;21504;-64
2022/03/29 08:36:44;;;;;;;8.65;6.90;;;;;;;17.87;38.54;98609.64;1793712;80;20997;-64
2022/03/29 08:39:10;;;;;;;7.95;7.15;;;;;;;17.90;38.51;98611.55;1793552;79;21115;-65
2022/03/29 08:41:39;;;;;;;9.05;7.30;;;;;;;17.92;38.49;98599.49;1801098;78;20983;-64
2022/03/29 08:44:06;;;;;;;7.30;6.58;;;;;;;17.95;38.52;98611.64;1807877;78;21248;-64
2022/03/29 08:46:36;;;;;;;7.83;7.03;;;;;;;17.96;38.47;98588.54;1825025;78;20962;-64
2022/03/29 08:49:03;;;;;;;8.23;7.45;;;;;;;17.99;38.45;98595.31;1826238;78;21458;-64
2022/03/29 08:51:30;;;;;;;8.75;6.97;;;;;;;18.01;38.42;98596.69;1826050;78;21334;-64
2022/03/29 08:53:59;;;;;;;8.50;7.58;;;;;;;18.03;38.41;98583.83;1826094;78;20980;-64
2022/03/29 08:56:25;;;;;;;7.85;7.00;;;;;;;18.05;38.40;98581.70;1826022;78;21238;-63
2022/03/29 08:58:53;;;;;;;8.95;7.97;;;;;;;18.08;38.38;98594.66;1826106;78;21060;-64
2022/03/29 09:01:21;;;;;;;7.78;7.08;;;;;;;18.12;38.37;98584.24;1826112;78;21017;-65
2022/03/29 09:04:11;;;;;;;9.08;8.10;;;;;;;18.16;40.41;98549.62;1824957;78;20993;-61
2022/03/29 09:06:59;;;;;;;9.98;7.97;;;;;;;18.25;43.77;98550.81;1826259;78;21517;-62
2022/03/29 09:09:30;;;;;;;9.13;7.80;;;;;;;18.43;44.91;98539.78;1826073;78;21466;-61
2022/03/29 09:11:59;;;;;;;8.48;7.67;;;;;;;18.63;45.20;98536.53;1826079;78;21072;-61
2022/03/29 09:14:29;;;;;;;8.15;7.35;;;;;;;18.80;45.54;98556.69;1826056;78;21010;-61
2022/03/29 09:16:57;;;;;;;11.12;8.20;;;;;;;18.99;45.85;98517.36;1826044;78;20970;-62
2022/03/29 09:19:25;;;;;;;8.20;7.03;;;;;;;19.14;45.84;98550.33;1820778;78;21073;-60
2022/03/29 09:21:55;;;;;;;9.23;7.62;;;;;;;19.29;46.03;98534.33;1793737;79;22084;-60
2022/03/29 09:24:23;;;;;;;9.30;7.45;;;;;;;19.44;45.80;98549.83;1793595;79;21033;-57
2022/03/29 09:26:55;;;;;;;10.65;8.55;;;;;;;19.57;45.79;98537.30;1793675;79;20978;-60
2022/03/29 09:29:24;;;;;;;7.92;7.08;;;;;;;19.71;46.04;98542.26;1793802;80;21509;-62
2022/03/29 09:32:09;;;;;;;7.97;7.25;;;;;;;19.82;45.80;98539.41;1793541;79;21057;-62
2022/03/29 09:34:36;;;;;;;8.08;6.72;;;;;;;19.90;45.45;98539.48;1793974;80;21171;-62
2022/03/29 09:37:03;;;;;;;8.85;7.05;;;;;;;19.96;45.30;98541.67;1794761;78;21038;-60
2022/03/29 09:39:41;;;;;;;9.25;6.95;;;;;;;19.98;45.08;98532.25;1793407;80;21026;-59
2022/03/29 09:42:11;;;;;;;9.60;7.12;;;;;;;20.00;44.87;98521.21;1807768;78;21049;-60
2022/03/29 09:44:45;;;;;;;8.63;7.37;;;;;;;20.01;44.71;98500.75;1826620;78;21126;-60
2022/03/29 09:47:14;;;;;;;10.25;7.33;;;;;;;20.03;44.63;98497.80;1826180;78;21250;-59
2022/03/29 09:50:06;;;;;;;8.80;6.72;;;;;;;20.06;44.42;98513.97;1826197;78;21505;-59
2022/03/29 09:52:39;;;;;;;8.05;7.15;;;;;;;20.07;44.33;98505.63;1826023;78;20992;-60
2022/03/29 09:55:17;;;;;;;8.08;6.97;;;;;;;20.10;44.13;98501.59;1825261;78;21071;-61
2022/03/29 09:57:57;;;;;;;7.10;6.40;;;;;;;20.10;44.05;98506.44;1826163;78;21130;-60
2022/03/29 10:00:35;;;;;;;7.35;6.65;;;;;;;20.13;43.90;98517.27;1826232;78;21855;-61
2022/03/29 10:03:05;;;;;;;7.50;6.70;;;;;;;20.14;43.74;98508.09;1826043;78;20997;-61
2022/03/29 10:05:32;;;;;;;7.35;6.65;;;;;;;20.16;43.65;98508.09;1808178;78;21088;-60
2022/03/29 10:10:34;;;;;;;7.55;6.58;;;;;;;20.17;43.53;98496.80;1816492;78;20987;-60
2022/03/29 10:13:02;;;;;;;7.20;6.40;;;;;;;20.19;43.30;98491.41;1826036;78;21025;-59
2022/03/29 10:15:29;;;;;;;6.72;5.75;;;;;;;20.23;43.24;98493.05;1826120;78;21651;-61
2022/03/29 10:17:57;;;;;;;7.35;6.05;;;;;;;20.26;43.18;98484.41;1826158;78;21036;-60
2022/03/29 10:20:24;;;;;;;6.65;5.95;;;;;;;20.31;43.04;98466.92;1820043;78;21017;-61
2022/03/29 10:22:51;;;;;;;6.58;5.90;;;;;;;20.35;42.97;98463.16;1814669;79;21458;-60
2022/03/29 10:25:18;;;;;;;6.80;6.20;;;;;;;20.39;42.95;98465.06;1814441;79;21222;-61
2022/03/29 10:27:46;;;;;;;8.10;6.70;;;;;;;20.45;42.78;98457.00;1804897;79;21519;-60
2022/03/29 10:30:36;;;;;;;6.80;6.15;;;;;;;20.50;42.73;98465.12;1771870;80;20990;-59
2022/03/29 10:33:23;;;;;;;7.20;6.50;;;;;;;20.57;42.69;98459.75;1773914;80;21095;-59
2022/03/29 10:36:09;;;;;;;7.42;6.72;;;;;;;20.63;42.51;98449.83;1782596;80;21707;-60
2022/03/29 10:38:54;;;;;;;6.97;6.28;;;;;;;20.67;42.52;98441.47;1782456;79;21398;-60
2022/03/29 10:41:34;;;;;;;6.97;6.28;;;;;;;20.73;42.39;98439.05;1786440;79;21034;-60
2022/03/29 10:44:05;;;;;;;6.25;5.62;;;;;;;20.77;42.33;98429.34;1814345;79;21011;-61
2022/03/29 10:46:49;;;;;;;6.53;5.92;;;;;;;20.80;42.31;98439.61;1782493;80;20994;-60
2022/03/29 10:49:24;;;;;;;6.95;6.25;;;;;;;20.84;42.26;98433.12;1782545;80;21025;-60
2022/03/29 10:51:58;;;;;;;6.70;6.00;;;;;;;20.85;42.22;98432.05;1782385;80;21126;-59
2022/03/29 10:54:33;;;;;;;6.62;5.95;;;;;;;20.86;42.16;98441.78;1781341;79;20990;-60
2022/03/29 10:57:06;;;;;;;5.80;5.28;;;;;;;20.87;42.04;98402.91;1782838;79;22070;-59
2022/03/29 10:59:36;;;;;;;6.95;6.20;;;;;;;20.88;42.00;98426.65;1782442;79;20994;-61
2022/03/29 11:02:20;;;;;;;6.15;5.55;;;;;;;20.87;41.95;98442.04;1783535;79;21037;-59
2022/03/29 11:05:05;;;;;;;6.17;5.58;;;;;;;20.88;41.76;98426.13;1782399;80;22087;-59
2022/03/29 11:07:37;;;;;;;6.22;5.62;;;;;;;20.86;41.63;98440.44;1781767;80;21549;-60
2022/03/29 11:10:16;;;;;;;6.25;5.65;;;;;;;20.85;41.53;98459.59;1782482;79;21010;-60
2022/03/29 11:12:57;;;;;;;7.50;6.05;;;;;;;20.82;41.42;98474.41;1782451;79;21037;-60
2022/03/29 11:15:35;;;;;;;6.22;5.47;;;;;;;20.80;41.36;98509.78;1782188;79;21034;-60
2022/03/29 11:18:01;;;;;;;6.42;5.83;;;;;;;20.78;41.27;98565.08;1782921;79;21132;-60
2022/03/29 11:20:34;;;;;;;6.30;5.50;;;;;;;20.76;41.25;98578.03;1811228;77;21038;-60
2022/03/29 11:23:06;;;;;;;5.60;5.05;;;;;;;20.74;41.16;98586.38;1802960;79;20997;-60
2022/03/29 11:25:42;;;;;;;6.40;5.80;;;;;;;20.71;41.08;98585.58;1802781;79;21041;-60
2022/03/29 11:28:11;;;;;;;6.10;5.50;;;;;;;20.70;40.99;98593.92;1803152;79;21006;-60
2022/03/29 11:30:38;;;;;;;6.22;5.62;;;;;;;20.68;40.96;98592.83;1802858;79;21237;-60
2022/03/29 11:33:06;;;;;;;5.90;5.30;;;;;;;20.65;40.95;98594.72;1802772;79;21037;-59
2022/03/29 11:35:35;;;;;;;5.92;5.33;;;;;;;20.65;40.95;98592.54;1798589;79;21033;-61
2022/03/29 11:38:10;;;;;;;6.17;5.28;;;;;;;20.62;40.92;98587.14;1782459;80;21549;-60
2022/03/29 11:40:37;;;;;;;6.05;5.47;;;;;;;20.60;40.90;98574.45;1782748;80;21533;-60
2022/03/29 11:43:06;;;;;;;6.33;5.72;;;;;;;20.58;40.88;98567.13;1809274;79;21888;-61
2022/03/29 11:45:42;;;;;;;6.03;5.53;;;;;;;20.55;40.84;98559.03;1814693;79;20983;-60
2022/03/29 11:48:14;;;;;;;6.40;5.80;;;;;;;20.54;40.79;98560.63;1814805;79;21017;-59
2022/03/29 11:50:55;;;;;;;5.90;5.40;;;;;;;20.51;40.76;98555.20;1814724;79;21494;-59
2022/03/29 11:53:31;;;;;;;6.10;5.60;;;;;;;20.48;40.83;98553.05;1813435;79;21505;-59